Time;durP1;ratioP1;P1;durP2;ratioP2;P2;SDS_P1;SDS_P2;PMS_P1;PMS_P2;Temp;Humidity;BMP_temperature;BMP_pressure;BME280_temperature;BME280_humidity;BME280_pressure;Samples;Min_cycle;Max_cycle;Signal;HPM_P1;HPM_P2
2022/01/04 00:01:51;;;;;;;20.33;18.53;;;;;;;22.76;34.24;95014.94;4921546;28;103522;-55
2022/01/04 00:04:16;;;;;;;20.20;18.50;;;;;;;22.75;34.64;95014.16;4936726;28;102803;-55
2022/01/04 00:06:45;;;;;;;19.90;18.20;;;;;;;22.75;33.86;95013.38;4921126;28;103344;-55
2022/01/04 00:09:11;;;;;;;18.37;16.80;;;;;;;22.74;34.12;95004.59;4920972;28;103675;-55
2022/01/04 00:11:57;;;;;;;18.93;17.43;;;;;;;22.75;34.23;95008.06;4929966;28;102810;-55
2022/01/04 00:14:22;;;;;;;19.93;18.33;;;;;;;22.74;34.25;95014.47;4925737;28;104464;-55
2022/01/04 00:16:50;;;;;;;21.20;19.40;;;;;;;22.74;33.99;95022.47;4920955;28;103235;-55
2022/01/04 00:19:17;;;;;;;19.33;17.73;;;;;;;22.74;34.24;95012.59;4921011;28;102795;-55
2022/01/04 00:21:43;;;;;;;19.80;18.07;;;;;;;22.72;34.04;95009.44;4919853;28;103788;-55
2022/01/04 00:24:08;;;;;;;20.30;18.63;;;;;;;22.72;34.13;95017.44;4930124;28;102797;-55
2022/01/04 00:26:34;;;;;;;20.57;18.77;;;;;;;22.73;33.83;95020.91;4927285;28;102912;-55
2022/01/04 00:29:00;;;;;;;21.67;19.67;;;;;;;22.71;34.34;95013.22;4922952;28;102861;-55
2022/01/04 00:31:25;;;;;;;20.93;19.23;;;;;;;22.71;34.21;95015.09;4930979;28;102905;-55
2022/01/04 00:33:51;;;;;;;20.20;18.50;;;;;;;22.70;33.87;95022.28;4921569;28;102717;-55
2022/01/04 00:36:17;;;;;;;19.70;18.00;;;;;;;22.71;33.81;95020.41;4921666;28;102893;-55
2022/01/04 00:38:43;;;;;;;20.73;18.93;;;;;;;22.70;33.99;95024.16;4921667;28;102726;-55
2022/01/04 00:41:08;;;;;;;20.50;18.73;;;;;;;22.69;34.02;95027.91;4919713;28;102630;-55
2022/01/04 00:43:34;;;;;;;19.07;17.47;;;;;;;22.69;34.01;95031.38;4920565;28;102801;-55
2022/01/04 00:46:00;;;;;;;20.40;18.80;;;;;;;22.68;33.81;95035.13;4919327;28;102770;-55
2022/01/04 00:50:52;;;;;;;21.87;20.07;;;;;;;22.68;34.06;95042.31;4917754;28;102708;-55
2022/01/04 00:53:18;;;;;;;20.30;18.60;;;;;;;22.69;33.80;95030.59;4919347;28;103282;-55
2022/01/04 00:55:44;;;;;;;21.47;19.57;;;;;;;22.69;33.44;95035.91;4919792;28;102893;-55
2022/01/04 00:58:10;;;;;;;21.03;19.23;;;;;;;22.68;33.73;95029.81;4920449;28;103177;-55
2022/01/04 01:00:35;;;;;;;23.07;21.10;;;;;;;22.68;33.77;95024.47;4919347;28;102822;-55
2022/01/04 01:03:01;;;;;;;20.77;18.97;;;;;;;22.67;33.56;95011.44;4918593;28;103011;-55
2022/01/04 01:05:27;;;;;;;23.00;20.87;;;;;;;22.66;33.41;95010.66;4920545;28;102873;-55
2022/01/04 01:07:54;;;;;;;21.73;19.83;;;;;;;22.67;33.62;95006.09;4920169;28;103111;-55
2022/01/04 01:13:04;;;;;;;25.17;23.00;;;;;;;22.65;33.58;94986.97;4918103;28;103338;-55
2022/01/04 01:15:30;;;;;;;25.67;23.37;;;;;;;22.64;33.50;95001.38;4919237;28;102732;-55
2022/01/04 01:17:55;;;;;;;24.00;21.90;;;;;;;22.62;34.01;94995.59;4919649;28;102843;-55
2022/01/04 01:20:21;;;;;;;25.57;23.20;;;;;;;22.62;33.45;95004.34;4919133;28;103252;-55
2022/01/04 01:22:47;;;;;;;25.17;23.07;;;;;;;22.61;33.87;95005.44;4919578;28;102658;-54
2022/01/04 01:25:13;;;;;;;26.23;24.03;;;;;;;22.61;33.52;94996.69;4919322;28;102881;-55
2022/01/04 01:27:42;;;;;;;27.27;24.97;;;;;;;22.61;33.52;94994.00;4919058;28;102941;-55
2022/01/04 01:30:09;;;;;;;25.87;23.67;;;;;;;22.59;33.21;94989.00;4918735;28;102805;-55
2022/01/04 01:32:34;;;;;;;24.60;22.43;;;;;;;22.59;33.96;94996.97;4919033;28;102782;-55
2022/01/04 01:35:00;;;;;;;25.50;23.30;;;;;;;22.59;33.77;95002.31;4919308;28;102711;-55
2022/01/04 01:37:26;;;;;;;25.40;23.30;;;;;;;22.57;33.95;94980.53;4924482;28;102694;-55
2022/01/04 01:39:51;;;;;;;26.73;24.43;;;;;;;22.59;33.74;94972.22;4922839;28;102686;-55
2022/01/04 01:42:17;;;;;;;24.33;22.17;;;;;;;22.58;33.49;94982.09;4934306;28;102888;-55
2022/01/04 01:44:42;;;;;;;24.00;22.00;;;;;;;22.58;33.74;94994.63;4925227;28;102759;-55
2022/01/04 01:47:08;;;;;;;25.73;23.47;;;;;;;22.57;33.55;95007.16;4919007;28;102828;-55
2022/01/04 01:49:34;;;;;;;26.13;23.93;;;;;;;22.57;33.70;95011.69;4919299;28;102791;-55
2022/01/04 01:51:59;;;;;;;25.53;23.37;;;;;;;22.57;33.60;95006.38;4919635;28;103248;-55
2022/01/04 01:54:26;;;;;;;22.83;20.93;;;;;;;22.57;33.18;95001.81;4919607;28;102811;-55
2022/01/04 01:56:52;;;;;;;25.83;23.53;;;;;;;22.57;33.27;94993.06;4919660;28;102743;-55
2022/01/04 01:59:17;;;;;;;25.00;22.80;;;;;;;22.56;33.34;95000.25;4917924;28;102740;-55
2022/01/04 02:01:44;;;;;;;25.60;23.43;;;;;;;22.56;33.52;94996.81;4919377;28;103521;-55
2022/01/04 02:04:09;;;;;;;25.87;23.60;;;;;;;22.57;33.60;94991.19;4918341;28;102639;-55
2022/01/04 02:06:36;;;;;;;26.00;23.70;;;;;;;22.56;33.11;94994.16;4919169;28;102848;-55
2022/01/04 02:09:03;;;;;;;23.73;21.83;;;;;;;22.57;33.28;94999.16;4917666;28;103371;-55
2022/01/04 02:11:30;;;;;;;22.60;20.60;;;;;;;22.59;33.28;95001.53;4919324;28;103333;-55
2022/01/04 02:13:56;;;;;;;22.83;21.03;;;;;;;22.60;32.89;95003.88;4917894;28;102790;-55
2022/01/04 02:16:24;;;;;;;23.60;21.50;;;;;;;22.61;33.37;95002.00;4919491;28;102812;-56
2022/01/04 02:18:50;;;;;;;23.20;21.30;;;;;;;22.60;33.01;94995.09;4918654;28;103321;-55
2022/01/04 02:21:15;;;;;;;22.90;21.00;;;;;;;22.58;32.93;94995.41;4918155;28;102893;-55
2022/01/04 02:23:41;;;;;;;23.10;21.00;;;;;;;22.59;33.08;94993.53;4919349;28;103064;-55
2022/01/04 02:26:06;;;;;;;22.37;20.47;;;;;;;22.60;32.92;94993.22;4920059;28;103306;-55
2022/01/04 02:28:32;;;;;;;23.43;21.40;;;;;;;22.59;33.18;94993.53;4918999;28;102815;-55
2022/01/04 02:30:57;;;;;;;22.67;20.70;;;;;;;22.58;32.85;94994.63;4931770;28;103179;-55
2022/01/04 02:33:23;;;;;;;22.67;20.77;;;;;;;22.59;33.12;94994.31;4938365;28;103038;-55
2022/01/04 02:35:49;;;;;;;22.87;20.83;;;;;;;22.59;33.11;94988.22;4925696;28;102937;-55
2022/01/04 02:38:14;;;;;;;23.30;21.30;;;;;;;22.58;33.13;94992.75;4927054;28;102707;-55
2022/01/04 02:40:40;;;;;;;23.43;21.30;;;;;;;22.57;33.15;94996.50;4938290;28;103386;-55
2022/01/04 02:43:06;;;;;;;23.83;21.83;;;;;;;22.59;32.92;94991.66;4918679;28;103713;-55
2022/01/04 02:45:31;;;;;;;22.53;20.63;;;;;;;22.58;33.01;94992.75;4923195;28;102769;-55
2022/01/04 02:47:57;;;;;;;21.77;19.90;;;;;;;22.59;33.12;94982.88;4933602;28;103368;-56
2022/01/04 02:50:22;;;;;;;23.13;21.13;;;;;;;22.58;32.68;94974.09;4920300;28;103879;-55
2022/01/04 02:52:48;;;;;;;21.50;19.73;;;;;;;22.58;32.92;94970.66;4923025;28;103856;-55
2022/01/04 02:55:15;;;;;;;22.93;20.77;;;;;;;22.58;32.95;94970.66;4919619;28;103169;-55
2022/01/04 02:57:41;;;;;;;21.17;19.37;;;;;;;22.61;32.93;94970.06;4918001;28;102711;-55
2022/01/04 03:00:10;;;;;;;21.07;19.40;;;;;;;22.61;32.90;94972.72;4918387;28;103760;-55
2022/01/04 03:02:37;;;;;;;20.33;18.67;;;;;;;22.60;32.92;94965.81;4918544;28;103173;-55
2022/01/04 03:05:03;;;;;;;21.73;19.93;;;;;;;22.59;33.10;94970.34;4918012;28;102698;-55
2022/01/04 03:07:29;;;;;;;21.27;19.00;;;;;;;22.59;33.16;94974.91;4919652;28;103314;-55
2022/01/04 03:09:54;;;;;;;21.33;19.43;;;;;;;22.57;33.15;94969.88;4919221;28;102706;-55
2022/01/04 03:12:21;;;;;;;20.30;18.40;;;;;;;22.57;32.67;94961.09;4920712;28;102678;-55
2022/01/04 03:14:47;;;;;;;21.00;19.20;;;;;;;22.57;32.94;94969.88;4921929;28;102828;-55
2022/01/04 03:17:12;;;;;;;20.80;19.10;;;;;;;22.57;33.22;94958.44;4939481;28;102708;-55
2022/01/04 03:19:38;;;;;;;21.00;19.20;;;;;;;22.56;33.04;94954.22;4938953;28;103580;-55
2022/01/04 03:22:04;;;;;;;20.30;18.57;;;;;;;22.57;32.89;94958.44;4928372;28;102949;-55
2022/01/04 03:24:29;;;;;;;19.40;17.73;;;;;;;22.56;32.71;94957.66;4921491;28;102902;-55
2022/01/04 03:26:55;;;;;;;19.70;18.00;;;;;;;22.57;32.65;94961.09;4920920;28;102953;-55
2022/01/04 03:29:21;;;;;;;18.73;17.13;;;;;;;22.56;32.73;94962.97;4920776;28;102722;-55
2022/01/04 03:31:47;;;;;;;19.57;17.97;;;;;;;22.56;32.76;94962.97;4920876;28;102883;-55
2022/01/04 03:34:13;;;;;;;20.33;18.60;;;;;;;22.56;32.73;94962.97;4921823;28;102848;-55
2022/01/04 03:36:40;;;;;;;19.53;17.83;;;;;;;22.57;32.98;94963.75;4920508;28;103746;-55
2022/01/04 03:39:08;;;;;;;19.13;17.53;;;;;;;22.57;32.92;94974.41;4921687;28;102691;-55
2022/01/04 03:41:37;;;;;;;18.00;16.40;;;;;;;22.57;32.67;94977.88;4921156;28;102687;-55
2022/01/04 03:44:04;;;;;;;17.97;16.43;;;;;;;22.57;32.95;94977.09;4921354;28;102679;-55
2022/01/04 03:46:31;;;;;;;19.17;17.37;;;;;;;22.57;32.98;94971.75;4923518;28;102732;-55
2022/01/04 03:48:56;;;;;;;19.17;17.43;;;;;;;22.57;32.57;94972.53;4919569;28;102825;-55
2022/01/04 03:51:22;;;;;;;18.47;16.97;;;;;;;22.57;32.88;94991.19;4920148;28;103871;-55
2022/01/04 03:53:48;;;;;;;18.43;16.80;;;;;;;22.58;32.72;94981.31;4921184;28;102759;-55
2022/01/04 03:56:14;;;;;;;18.53;17.03;;;;;;;22.56;32.86;94983.50;4920317;28;102875;-55
2022/01/04 03:58:39;;;;;;;16.90;15.50;;;;;;;22.57;32.55;94980.53;4935391;28;103460;-55
2022/01/04 04:01:05;;;;;;;18.47;16.93;;;;;;;22.57;32.47;95001.03;4925577;28;102680;-55
2022/01/04 04:03:31;;;;;;;17.07;15.57;;;;;;;22.58;32.41;95003.41;4921971;28;102788;-53
2022/01/04 04:05:57;;;;;;;18.23;16.67;;;;;;;22.57;33.09;94995.72;4923292;28;103962;-55
2022/01/04 04:08:23;;;;;;;17.50;16.00;;;;;;;22.54;33.33;94991.00;4923369;28;103382;-55
2022/01/04 04:10:48;;;;;;;18.17;16.67;;;;;;;22.53;32.87;94990.22;4939412;28;103990;-54
2022/01/04 04:13:14;;;;;;;19.03;17.33;;;;;;;22.52;33.15;94984.09;4925883;28;104495;-55
2022/01/04 04:15:43;;;;;;;19.70;17.87;;;;;;;22.54;32.87;94986.47;4921196;28;102965;-55
2022/01/04 04:18:09;;;;;;;18.50;16.80;;;;;;;22.55;33.09;94992.56;4920845;28;103340;-55
2022/01/04 04:20:37;;;;;;;18.47;16.97;;;;;;;22.52;33.01;94993.97;4918747;28;104118;-55
2022/01/04 04:23:03;;;;;;;18.37;16.53;;;;;;;22.56;32.72;94999.47;4919755;28;102862;-56
2022/01/04 04:25:28;;;;;;;16.53;15.23;;;;;;;22.55;32.39;94997.91;4920626;28;102621;-56
2022/01/04 04:27:54;;;;;;;17.17;15.67;;;;;;;22.53;33.10;94998.22;4920795;28;103418;-56
2022/01/04 04:30:19;;;;;;;18.00;16.40;;;;;;;22.51;32.62;94997.72;4920114;28;102768;-56
2022/01/04 04:32:45;;;;;;;17.63;16.03;;;;;;;22.49;32.58;94998.00;4920070;28;102798;-56
2022/01/04 04:35:10;;;;;;;18.73;17.23;;;;;;;22.48;32.77;95000.97;4919909;28;102704;-56
2022/01/04 04:37:36;;;;;;;19.00;17.27;;;;;;;22.43;32.44;94995.78;4920954;28;102858;-56
2022/01/04 04:40:02;;;;;;;18.73;16.90;;;;;;;22.42;32.14;95000.31;4920043;28;102713;-56
2022/01/04 04:42:28;;;;;;;19.30;17.43;;;;;;;22.41;32.13;95013.94;4919673;28;102867;-56
2022/01/04 04:44:54;;;;;;;23.03;17.50;;;;;;;22.40;31.97;95018.47;4920175;28;103429;-55
2022/01/04 04:47:19;;;;;;;18.37;16.77;;;;;;;22.43;32.04;95015.19;4921567;28;103461;-54
2022/01/04 04:49:45;;;;;;;18.20;16.50;;;;;;;22.51;31.99;95014.50;4924610;28;102771;-54
2022/01/04 04:52:10;;;;;;;17.80;16.13;;;;;;;22.55;32.40;95013.88;4921379;28;102739;-55
2022/01/04 04:54:36;;;;;;;17.03;15.43;;;;;;;22.57;31.62;95014.34;4919777;28;102718;-58
2022/01/04 04:57:02;;;;;;;17.23;15.63;;;;;;;22.55;32.48;95011.22;4922763;28;102729;-55
2022/01/04 04:59:27;;;;;;;18.20;16.53;;;;;;;22.52;32.63;95005.41;4919821;28;102948;-54
2022/01/04 05:01:53;;;;;;;17.07;15.47;;;;;;;22.50;32.19;95007.56;4920409;28;102817;-54
2022/01/04 05:04:18;;;;;;;18.00;16.20;;;;;;;22.51;32.58;95008.38;4919525;28;102847;-54
2022/01/04 05:06:44;;;;;;;17.30;15.77;;;;;;;22.49;32.55;95011.31;4920053;28;103748;-55
2022/01/04 05:09:10;;;;;;;16.60;15.20;;;;;;;22.48;32.16;95012.41;4920126;28;102629;-54
2022/01/04 05:11:35;;;;;;;17.90;16.33;;;;;;;22.49;32.27;95007.88;4920341;28;102758;-55
2022/01/04 05:14:01;;;;;;;17.27;15.73;;;;;;;22.48;32.41;95008.94;4920801;28;103144;-55
2022/01/04 05:16:26;;;;;;;18.03;16.33;;;;;;;22.47;32.67;95008.16;4902348;28;105418;-55
2022/01/04 05:18:52;;;;;;;19.07;17.33;;;;;;;22.48;32.22;95008.94;4920158;28;103168;-55
2022/01/04 05:21:17;;;;;;;17.33;15.93;;;;;;;22.47;32.22;95010.81;4921086;28;103327;-55
2022/01/04 05:23:43;;;;;;;18.67;17.00;;;;;;;22.46;32.36;95011.91;4919997;28;103789;-55
2022/01/04 05:26:08;;;;;;;17.70;16.10;;;;;;;22.46;32.52;95009.25;4920270;28;103482;-55
2022/01/04 05:28:34;;;;;;;17.50;15.93;;;;;;;22.47;32.19;95004.72;4919846;28;103402;-54
2022/01/04 05:31:00;;;;;;;17.43;15.90;;;;;;;22.45;32.39;95005.03;4920242;28;102851;-54
2022/01/04 05:33:25;;;;;;;17.67;16.17;;;;;;;22.45;32.98;94994.38;4919330;28;103331;-54
2022/01/04 05:35:53;;;;;;;16.50;15.10;;;;;;;22.45;32.46;94991.72;4920488;28;103787;-54
2022/01/04 05:38:19;;;;;;;16.90;15.50;;;;;;;22.44;32.29;94995.47;4919230;28;102804;-54
2022/01/04 05:40:45;;;;;;;17.33;15.83;;;;;;;22.44;32.84;94992.81;4919146;28;102755;-55
2022/01/04 05:43:10;;;;;;;16.83;15.33;;;;;;;22.43;32.35;94993.91;4919812;28;102762;-55
2022/01/04 05:45:36;;;;;;;15.90;14.53;;;;;;;22.44;32.58;94994.69;4901644;28;102798;-55
2022/01/04 05:48:02;;;;;;;14.83;13.63;;;;;;;22.43;32.31;94988.56;4918531;28;102715;-54
2022/01/04 05:50:29;;;;;;;16.63;15.13;;;;;;;22.44;32.72;94997.34;4919515;28;102823;-54
2022/01/04 05:52:55;;;;;;;16.17;14.80;;;;;;;22.44;32.63;94984.81;4918777;28;102678;-55
2022/01/04 05:55:20;;;;;;;15.10;13.80;;;;;;;22.43;32.28;94980.59;4901229;28;102891;-54
2022/01/04 05:57:46;;;;;;;14.97;13.77;;;;;;;22.43;32.85;94980.59;4919725;28;102879;-55
2022/01/04 06:00:11;;;;;;;16.03;14.73;;;;;;;22.43;32.68;94980.59;4918853;28;102926;-54
2022/01/04 06:02:37;;;;;;;14.10;12.97;;;;;;;22.44;32.76;94982.16;4918905;28;102836;-54
2022/01/04 06:05:03;;;;;;;15.10;13.70;;;;;;;22.44;32.54;94981.38;4920041;28;103496;-54
2022/01/04 06:07:29;;;;;;;14.43;13.13;;;;;;;22.44;32.33;94982.16;4918512;28;102895;-54
2022/01/04 06:09:55;;;;;;;15.00;13.70;;;;;;;22.44;32.73;94992.03;4919079;28;102729;-54
2022/01/04 06:15:06;;;;;;;14.67;13.37;;;;;;;22.45;32.43;94988.25;4918585;28;102669;-55
2022/01/04 06:17:41;;;;;;;14.07;12.67;;;;;;;22.45;32.31;94985.59;4937859;28;103284;-55
2022/01/04 06:20:12;;;;;;;13.63;12.50;;;;;;;22.45;32.43;94990.94;4938700;28;102812;-55
2022/01/04 06:22:39;;;;;;;14.67;13.43;;;;;;;22.44;32.35;94989.34;4937674;28;104442;-55
2022/01/04 06:25:07;;;;;;;13.40;12.20;;;;;;;22.45;32.39;94993.59;4938269;28;103280;-54
2022/01/04 06:27:33;;;;;;;13.57;12.37;;;;;;;22.45;32.58;94993.59;4938528;28;102685;-54
2022/01/04 06:30:00;;;;;;;13.63;12.43;;;;;;;22.46;32.67;94995.94;4938010;28;103218;-54
2022/01/04 06:32:26;;;;;;;14.30;13.10;;;;;;;22.45;32.67;94994.38;4938504;28;104530;-55
2022/01/04 06:34:52;;;;;;;14.57;13.33;;;;;;;22.45;32.55;94997.03;4939101;28;103217;-54
2022/01/04 06:37:18;;;;;;;14.53;13.33;;;;;;;22.45;32.72;94985.59;4938433;28;103202;-54
2022/01/04 06:39:44;;;;;;;16.27;14.87;;;;;;;22.47;32.45;94991.41;4938249;28;102775;-54
2022/01/04 06:42:11;;;;;;;16.60;15.20;;;;;;;22.46;32.61;94982.63;4938808;28;102823;-54
2022/01/04 06:44:37;;;;;;;17.17;15.63;;;;;;;22.46;32.54;94982.63;4937521;28;102838;-55
2022/01/04 06:47:04;;;;;;;17.47;15.90;;;;;;;22.46;32.36;94987.97;4940352;28;102776;-55
2022/01/04 06:49:29;;;;;;;17.10;15.60;;;;;;;22.46;32.64;94979.97;4942108;28;103021;-55
2022/01/04 06:51:55;;;;;;;18.70;17.20;;;;;;;22.47;32.45;94984.22;4942119;28;103258;-55
2022/01/04 06:54:21;;;;;;;18.00;16.50;;;;;;;22.48;32.44;94985.00;4941470;28;102798;-55
2022/01/04 06:56:48;;;;;;;19.20;17.60;;;;;;;22.48;32.52;94979.66;4942138;28;102335;-55
2022/01/04 06:59:14;;;;;;;18.10;16.60;;;;;;;22.48;32.55;94972.47;4941951;28;102653;-55
2022/01/04 07:01:39;;;;;;;18.67;17.17;;;;;;;22.49;32.20;94968.72;4940645;28;103233;-55
2022/01/04 07:04:05;;;;;;;18.67;16.93;;;;;;;22.51;32.09;94976.44;4941527;28;102758;-55
2022/01/04 07:06:32;;;;;;;18.90;17.20;;;;;;;22.54;32.19;94988.34;4941280;28;102736;-55
2022/01/04 07:08:57;;;;;;;19.83;18.03;;;;;;;22.56;32.16;94986.16;4941609;28;103123;-55
2022/01/04 07:11:23;;;;;;;20.33;18.57;;;;;;;22.63;31.99;94984.63;4941512;28;103120;-55
2022/01/04 07:13:49;;;;;;;18.87;17.27;;;;;;;22.69;32.04;94987.97;4941726;28;103308;-55
2022/01/04 07:16:14;;;;;;;19.73;18.03;;;;;;;22.79;32.03;94991.16;4927362;28;102982;-55
2022/01/04 07:18:40;;;;;;;20.20;18.60;;;;;;;22.89;32.00;94992.03;4922054;28;102733;-55
2022/01/04 07:21:07;;;;;;;21.00;19.30;;;;;;;22.94;31.77;94989.22;4921645;28;102823;-55
2022/01/04 07:23:33;;;;;;;20.33;18.53;;;;;;;22.91;31.33;94998.63;4922092;28;103732;-54
2022/01/04 07:25:59;;;;;;;20.00;18.30;;;;;;;22.86;32.07;94998.75;4920359;28;103332;-54
2022/01/04 07:28:25;;;;;;;18.83;17.23;;;;;;;22.87;31.78;94997.66;4921007;28;103197;-54
2022/01/04 07:30:51;;;;;;;20.63;18.93;;;;;;;22.85;31.83;94986.53;4920342;28;102883;-54
2022/01/04 07:33:17;;;;;;;20.60;18.80;;;;;;;22.83;31.54;94991.34;4921528;28;103261;-54
2022/01/04 07:35:43;;;;;;;21.17;19.37;;;;;;;22.83;31.66;94999.34;4921497;28;102700;-54
2022/01/04 07:38:09;;;;;;;20.30;18.63;;;;;;;22.84;31.73;94994.81;4922311;28;102829;-54
2022/01/04 07:40:35;;;;;;;20.90;19.10;;;;;;;22.84;31.46;95000.91;4921072;28;104206;-54
2022/01/04 07:43:00;;;;;;;21.23;19.10;;;;;;;22.84;31.96;94989.47;4921981;28;103557;-54
2022/01/04 07:45:30;;;;;;;20.37;18.67;;;;;;;22.87;31.83;94995.00;4921535;28;102705;-54
2022/01/04 07:47:57;;;;;;;22.17;20.37;;;;;;;22.88;31.95;94980.59;4921831;28;103306;-54
2022/01/04 07:50:24;;;;;;;22.60;20.70;;;;;;;22.87;32.33;94981.69;4919646;28;104365;-54
2022/01/04 07:52:49;;;;;;;21.03;19.30;;;;;;;22.89;32.50;94976.03;4921366;28;103395;-54
2022/01/04 07:55:16;;;;;;;21.27;19.23;;;;;;;22.89;32.20;94976.03;4920938;28;102792;-54
2022/01/04 07:57:42;;;;;;;21.97;20.07;;;;;;;22.89;32.21;94971.50;4921491;28;102978;-54
2022/01/04 08:00:09;;;;;;;22.03;20.13;;;;;;;22.89;32.19;94979.50;4920295;28;102776;-54
2022/01/04 08:02:35;;;;;;;20.80;19.10;;;;;;;22.90;32.32;94978.41;4921039;28;102630;-54
2022/01/04 08:05:01;;;;;;;21.27;19.47;;;;;;;22.94;32.18;94973.25;4921841;28;102688;-54
2022/01/04 08:07:26;;;;;;;21.27;19.57;;;;;;;22.97;32.57;94972.63;4922250;28;103275;-54
2022/01/04 08:09:52;;;;;;;21.00;19.17;;;;;;;22.99;32.34;94962.44;4921083;28;103189;-54
2022/01/04 08:12:18;;;;;;;21.30;19.40;;;;;;;23.01;32.66;94969.06;4920688;28;103410;-54
2022/01/04 08:14:45;;;;;;;21.50;19.37;;;;;;;23.05;32.22;94978.00;4903187;28;105244;-55
2022/01/04 08:17:11;;;;;;;20.67;18.97;;;;;;;23.06;32.51;94986.78;4939890;28;102854;-54
2022/01/04 08:19:36;;;;;;;22.37;20.43;;;;;;;23.05;33.17;94980.69;4940676;28;103342;-54
2022/01/04 08:22:02;;;;;;;23.17;21.20;;;;;;;23.05;32.76;94982.56;4940900;28;103677;-54
2022/01/04 08:24:28;;;;;;;23.40;21.33;;;;;;;23.05;33.11;94978.00;4939664;28;103464;-54
2022/01/04 08:26:53;;;;;;;26.27;23.87;;;;;;;23.04;33.32;94973.78;4941010;28;103239;-54
2022/01/04 08:29:19;;;;;;;26.40;24.10;;;;;;;23.05;33.03;94972.69;4939940;28;103107;-54
2022/01/04 08:31:44;;;;;;;26.17;23.90;;;;;;;23.07;33.08;94981.16;4940840;28;103186;-54
2022/01/04 08:34:10;;;;;;;26.00;23.63;;;;;;;23.04;33.53;94978.31;4939944;28;102865;-54
2022/01/04 08:36:38;;;;;;;26.87;24.57;;;;;;;23.04;33.59;94975.66;4940680;28;102747;-54
2022/01/04 08:39:03;;;;;;;26.03;23.83;;;;;;;23.02;33.87;94972.50;4938205;28;102906;-54
2022/01/04 08:41:29;;;;;;;26.13;23.73;;;;;;;23.00;33.38;94967.47;4940390;28;102892;-54
2022/01/04 08:43:55;;;;;;;26.40;24.10;;;;;;;23.00;33.71;94967.47;4940094;28;102818;-54
2022/01/04 08:46:22;;;;;;;24.70;22.60;;;;;;;23.03;33.34;94971.41;4939249;28;102880;-54
2022/01/04 08:48:48;;;;;;;24.90;22.80;;;;;;;23.00;33.36;94970.13;4940120;28;103323;-54
2022/01/04 08:51:13;;;;;;;25.93;23.73;;;;;;;23.02;33.74;94967.19;4939780;28;102776;-54
2022/01/04 08:53:39;;;;;;;27.80;25.37;;;;;;;23.02;33.74;94959.19;4939792;28;103806;-54
2022/01/04 08:56:05;;;;;;;25.73;23.53;;;;;;;23.02;33.72;94949.31;4940221;28;103180;-54
2022/01/04 08:58:31;;;;;;;24.10;22.20;;;;;;;23.03;33.65;94958.09;4940222;28;103321;-54
2022/01/04 09:00:56;;;;;;;24.60;22.57;;;;;;;23.05;33.26;94962.03;4939464;28;103369;-54
2022/01/04 09:03:24;;;;;;;25.10;22.90;;;;;;;23.09;33.60;94954.19;4939094;28;102773;-54
2022/01/04 09:05:50;;;;;;;25.80;23.40;;;;;;;23.07;33.53;94957.16;4939524;28;102822;-54
2022/01/04 09:08:15;;;;;;;23.27;21.23;;;;;;;23.07;33.70;94956.38;4952943;28;102736;-54
2022/01/04 09:10:41;;;;;;;26.30;23.93;;;;;;;23.07;33.32;94951.06;4939234;28;102840;-54
2022/01/04 09:13:15;;;;;;;25.00;23.00;;;;;;;23.09;33.61;94951.53;4921617;28;103906;-54
2022/01/04 09:20:53;;;;;;;27.43;25.13;;;;;;;23.02;33.52;94938.66;4920761;28;102819;-54
2022/01/04 09:23:20;;;;;;;26.93;24.67;;;;;;;23.02;33.89;94920.00;4918075;28;103410;-54
2022/01/04 09:25:51;;;;;;;27.03;24.63;;;;;;;23.03;33.20;94924.25;4920228;28;102847;-54
2022/01/04 09:28:18;;;;;;;27.47;25.17;;;;;;;23.04;33.34;94923.16;4918766;28;104410;-54
2022/01/04 09:30:45;;;;;;;28.90;26.57;;;;;;;23.04;33.39;94909.81;4918271;28;104225;-54
2022/01/04 09:33:11;;;;;;;27.10;24.90;;;;;;;23.06;33.64;94912.19;4920254;28;102735;-54
2022/01/04 09:35:37;;;;;;;28.20;25.80;;;;;;;23.07;33.56;94906.53;4920410;28;102643;-54
2022/01/04 09:38:04;;;;;;;27.27;24.87;;;;;;;23.11;33.47;94893.38;4920020;28;103573;-54
2022/01/04 09:40:32;;;;;;;27.30;24.90;;;;;;;23.12;33.29;94886.94;4919254;28;105445;-54
2022/01/04 09:42:57;;;;;;;28.37;25.90;;;;;;;23.13;32.95;94875.19;4920064;28;103443;-54
2022/01/04 09:45:23;;;;;;;25.87;23.73;;;;;;;23.16;33.31;94865.78;4920612;28;103363;-54
2022/01/04 09:47:48;;;;;;;26.97;24.47;;;;;;;23.18;32.95;94860.94;4920448;28;103189;-54
2022/01/04 09:50:14;;;;;;;25.93;23.83;;;;;;;23.20;32.81;94869.44;4920069;28;102795;-53
2022/01/04 09:52:44;;;;;;;25.83;23.50;;;;;;;23.27;32.71;94867.06;4918679;28;102905;-53
2022/01/04 09:55:14;;;;;;;26.27;24.00;;;;;;;23.29;32.98;94852.34;4920369;28;102839;-53
2022/01/04 09:57:41;;;;;;;26.00;23.70;;;;;;;23.31;33.12;94855.47;4918842;28;103027;-53
2022/01/04 10:00:08;;;;;;;26.33;24.03;;;;;;;23.33;32.84;94852.50;4919209;28;103379;-54
2022/01/04 10:02:35;;;;;;;26.70;24.50;;;;;;;23.34;33.21;94852.19;4918941;28;103081;-53
2022/01/04 10:05:20;;;;;;;26.07;23.87;;;;;;;23.35;33.24;94845.00;4919510;28;102686;-54
2022/01/04 10:07:47;;;;;;;27.17;24.87;;;;;;;23.36;32.92;94841.22;4919252;28;103271;-53
2022/01/04 10:10:15;;;;;;;27.30;25.10;;;;;;;23.36;33.16;94846.56;4919391;28;103744;-55
2022/01/04 10:12:51;;;;;;;28.53;26.13;;;;;;;23.36;33.32;94833.22;4918236;28;102856;-55
2022/01/04 10:15:38;;;;;;;28.17;25.87;;;;;;;23.37;33.28;94824.13;4923669;28;102841;-55
2022/01/04 10:18:25;;;;;;;29.33;27.13;;;;;;;23.37;33.51;94818.81;4938623;28;102705;-55
2022/01/04 10:21:02;;;;;;;25.47;23.37;;;;;;;23.38;33.56;94815.81;4938142;28;102840;-53
2022/01/04 10:23:28;;;;;;;25.03;22.90;;;;;;;23.42;33.63;94802.66;4937617;28;102941;-55
2022/01/04 10:26:03;;;;;;;24.73;22.73;;;;;;;23.44;33.57;94800.44;4939954;28;103498;-54
2022/01/04 10:28:32;;;;;;;26.80;24.60;;;;;;;23.46;33.49;94806.25;4938403;28;102852;-53
2022/01/04 10:31:04;;;;;;;25.00;23.00;;;;;;;23.47;33.12;94805.16;4937586;28;103878;-53
2022/01/04 10:33:31;;;;;;;26.67;24.57;;;;;;;23.46;32.93;94789.47;4938822;28;102665;-53
2022/01/04 10:35:59;;;;;;;25.23;23.23;;;;;;;23.48;33.27;94787.25;4938244;28;102772;-53
2022/01/04 10:38:27;;;;;;;26.20;23.90;;;;;;;23.50;33.12;94782.41;4938176;28;103249;-53
2022/01/04 10:41:23;;;;;;;25.13;23.03;;;;;;;23.50;32.83;94783.19;4938316;28;102968;-53
2022/01/04 10:44:07;;;;;;;26.43;24.33;;;;;;;23.52;33.23;94770.34;4936982;28;104000;-53
2022/01/04 10:46:44;;;;;;;26.37;24.17;;;;;;;23.52;32.83;94775.69;4938302;28;102924;-53
2022/01/04 10:49:21;;;;;;;26.63;24.47;;;;;;;23.53;33.21;94785.25;4938576;28;103100;-53
2022/01/04 10:52:05;;;;;;;27.17;24.87;;;;;;;23.53;33.10;94779.91;4938024;28;102717;-53
2022/01/04 10:54:30;;;;;;;27.20;25.00;;;;;;;23.53;33.09;94771.91;4937813;28;102703;-53
2022/01/04 10:57:10;;;;;;;28.10;25.80;;;;;;;23.52;33.13;94765.00;4937473;28;102684;-53
2022/01/04 10:59:36;;;;;;;28.77;26.37;;;;;;;23.54;32.99;94764.69;4937713;28;102825;-53
2022/01/04 11:02:03;;;;;;;30.43;28.07;;;;;;;23.54;32.62;94772.69;4938687;28;103046;-53
2022/01/04 11:04:29;;;;;;;31.93;29.33;;;;;;;23.53;32.84;94769.25;4953365;28;103768;-53
2022/01/04 11:07:02;;;;;;;30.73;28.13;;;;;;;23.52;32.81;94762.34;4938240;28;103221;-53
2022/01/04 11:09:29;;;;;;;31.30;28.70;;;;;;;23.51;32.97;94757.31;4936576;28;102814;-53
2022/01/04 11:11:54;;;;;;;31.30;28.73;;;;;;;23.50;32.84;94759.19;4937473;28;103251;-53
2022/01/04 11:14:21;;;;;;;30.67;28.17;;;;;;;23.48;32.77;94758.72;4937622;28;102776;-53
2022/01/04 11:16:46;;;;;;;32.37;29.83;;;;;;;23.48;33.18;94756.06;4921211;28;102784;-53
2022/01/04 11:19:12;;;;;;;31.70;29.10;;;;;;;23.46;32.62;94752.91;4917757;28;102805;-53
2022/01/04 11:21:41;;;;;;;32.20;29.60;;;;;;;23.47;32.60;94746.47;4918356;28;102674;-53